Mayport Ns (Adm David L. Mcdonald Field) Airport
KNRB : now visible

Airfield :











YOU CAN JOIN US ON...

 
LOGIN :

Register | Disclaimer

   EN    FR    IT 

 









Legend :    VFR   Marginal VFR   IFR   Intensive IFR   Very Intensive IFR
Visi :
Ceiling :
>= 8 km
>= 3000ft
5 to 8 km
1000 to 3000 ft
1500m to 5 km
500 to 1000 ft
800 to 1500m
200 to 500 ft
< 800m
< 200 ft
Symbols :   Thunderstorms  Fog  Heavy snow  Heavy precipitations  Wind > 20 kt







- Airport Elevation : 15 ft


KNRB - Mayport Ns (Adm David L. Mcdonald Field)

CURRENT METAR :
  • 201552Z AUTO 27017G26KT 10SM FEW046 17/06 A2993 RMK AO2 PK WND 27027/1453 SLP134 T01720061

EXPIRED METARs :
  • 201452Z AUTO 24015G21KT 10SM SCT035 BKN080 17/08 A2993 RMK AO2 SLP133 T01720083 51017
  • 201352Z AUTO 26011KT 10SM SCT043 BKN050 OVC070 16/08 A2991 RMK AO2 SLP129 T01560078

TAF TAF KNRB
Valid from the 20 at 15:00 until the 21 at 15:00 UTC


2015/2115 29020G25KT 9999 SCT035 BKN080 QNH2990INS
BECMG 2020/2022 26012KT 9999 FEW030 SCT010 QNH2992INS
BECMG 2104/2106 23008KT 9999 FEW080 QNH2995INS
BECMG 2108/2110 VRB06KT 9999 FEW250 QNH2997INS AUTOMATED SENSOR METWATCH 2015 TIL 2209 T24/2019Z T12/2111Z FN00178
KZJX FIR / North America



MET'MAP, your aeronautical weather chart ! - Copyright ORBIFLY December 2007 - Disclaimer

ORBIFLY MET'MAP TEAM :

Programming & Development : Alexandra Zaïnal
Concept & Development : Baudouin d'Aumeries
Co-Development & Prog : Marc-Olivier Méhu
Technical & hardware support : Manuel Goepfert

Contact : metmap@orbifly.com




SOURCES & CREDITS :

   NOAA       Earth
Advisory